China Lake Nwc, California
Current Conditions -  °F | °C
As of 12:55 PM on Saturday 20 Dec 2014 (Local Time) from KBYS Reporting Station
Few Clouds Few Clouds  
Wind Chill: 51°   Ceiling: Unl
Heat Index: 51°   Visibility: 10mi
Dew Point: 39°   Wind: 2mph
Humidity: 63%   Direction: 140°SE
Pressure: 30.1"   Gusts: NA
Location:  35.7401°N, 117.453°W
Report Text: KBYS 202055Z AUTO 14002KT 10SM FEW200 11/04 A3010 RMK AO2 SLP212 T01080039 58015 $
Loading
Personal Weather Stations






























Interactive Weather Map New forecast layout! Learn more

10-Day Weather Forecast

Advertisements
Track Severe Weather on mobile